Time;durP1;ratioP1;P1;durP2;ratioP2;P2;SDS_P1;SDS_P2;PMS_P1;PMS_P2;Temp;Humidity;BMP_temperature;BMP_pressure;BME280_temperature;BME280_humidity;BME280_pressure;Samples;Min_cycle;Max_cycle;Signal;HPM_P1;HPM_P2
2021/03/13 00:00:52;;;;;;;4.72;1.80;;;;;;;;;;5073914;28;20236;-76
2021/03/13 00:03:19;;;;;;;6.18;2.00;;;;;;;;;;5073362;28;20169;-75
2021/03/13 00:05:46;;;;;;;4.53;1.70;;;;;;;;;;5073856;28;20208;-76
2021/03/13 00:08:12;;;;;;;2.63;1.38;;;;;;;;;;5073614;28;20170;-76
2021/03/13 00:10:39;;;;;;;4.72;1.23;;;;;;;;;;5073493;28;20182;-76
2021/03/13 00:13:05;;;;;;;6.93;1.58;;;;;;;;;;5073170;28;20675;-75
2021/03/13 00:15:32;;;;;;;5.78;1.40;;;;;;;;;;5072936;28;20203;-75
2021/03/13 00:17:58;;;;;;;7.78;1.60;;;;;;;;;;5073151;28;20611;-76
2021/03/13 00:20:25;;;;;;;3.45;1.30;;;;;;;;;;5073410;28;20208;-76
2021/03/13 00:22:52;;;;;;;5.55;1.75;;;;;;;;;;5073247;28;20558;-75
2021/03/13 00:25:18;;;;;;;8.80;1.80;;;;;;;;;;5073008;28;20190;-75
2021/03/13 00:27:47;;;;;;;2.22;1.30;;;;;;;;;;5073506;28;20176;-77
2021/03/13 00:30:19;;;;;;;4.65;1.65;;;;;;;;;;5073339;28;20180;-75
2021/03/13 00:32:46;;;;;;;2.53;1.30;;;;;;;;;;5073311;28;20180;-75
2021/03/13 00:35:13;;;;;;;5.88;1.90;;;;;;;;;;5072279;28;20220;-77
2021/03/13 00:37:40;;;;;;;6.38;2.00;;;;;;;;;;5054995;28;20191;-78
2021/03/13 00:40:06;;;;;;;5.18;2.15;;;;;;;;;;5073121;28;20668;-76
2021/03/13 00:42:32;;;;;;;6.38;2.42;;;;;;;;;;5073253;28;20169;-77
2021/03/13 00:44:58;;;;;;;4.32;2.10;;;;;;;;;;5054756;28;20212;-76
2021/03/13 00:47:25;;;;;;;4.65;2.50;;;;;;;;;;5072959;28;20234;-75
2021/03/13 00:49:51;;;;;;;7.43;2.97;;;;;;;;;;5073158;28;20179;-77
2021/03/13 00:52:17;;;;;;;5.93;2.15;;;;;;;;;;5055158;28;20177;-77
2021/03/13 00:54:43;;;;;;;8.07;2.55;;;;;;;;;;5055066;28;20758;-77
2021/03/13 00:57:09;;;;;;;6.90;3.10;;;;;;;;;;5072986;28;20211;-77
2021/03/13 00:59:35;;;;;;;3.67;2.22;;;;;;;;;;5072769;28;20473;-76
2021/03/13 01:02:01;;;;;;;9.07;2.95;;;;;;;;;;5055121;28;20187;-76
2021/03/13 01:04:27;;;;;;;4.97;2.70;;;;;;;;;;5072411;28;20194;-77
2021/03/13 01:06:53;;;;;;;10.15;4.65;;;;;;;;;;5072960;28;20169;-75
2021/03/13 01:09:19;;;;;;;5.43;1.80;;;;;;;;;;5072751;28;20521;-76
2021/03/13 01:11:45;;;;;;;4.65;3.03;;;;;;;;;;5055004;28;20430;-75
2021/03/13 01:14:11;;;;;;;5.90;3.20;;;;;;;;;;5072378;28;20719;-75
2021/03/13 01:16:37;;;;;;;8.45;2.35;;;;;;;;;;5072759;28;20192;-74
2021/03/13 01:19:03;;;;;;;4.25;1.73;;;;;;;;;;5072657;28;20264;-75
2021/03/13 01:21:29;;;;;;;8.27;2.10;;;;;;;;;;5072506;28;20179;-75
2021/03/13 01:23:55;;;;;;;2.55;1.75;;;;;;;;;;5072378;28;20198;-75
2021/03/13 01:26:21;;;;;;;3.67;2.03;;;;;;;;;;5072858;28;20180;-75
2021/03/13 01:28:47;;;;;;;6.22;2.85;;;;;;;;;;5076234;28;20175;-75
2021/03/13 01:31:14;;;;;;;5.82;2.47;;;;;;;;;;5076647;28;20237;-75
2021/03/13 01:33:40;;;;;;;2.42;1.55;;;;;;;;;;5041885;28;20247;-74
2021/03/13 01:36:06;;;;;;;3.20;1.77;;;;;;;;;;5058794;28;20218;-75
2021/03/13 01:38:32;;;;;;;4.78;1.85;;;;;;;;;;5058578;28;20415;-77
2021/03/13 01:40:58;;;;;;;1.63;1.52;;;;;;;;;;5076574;28;20205;-74
2021/03/13 01:43:24;;;;;;;2.80;1.67;;;;;;;;;;5076067;28;20538;-75
2021/03/13 01:45:50;;;;;;;4.22;1.90;;;;;;;;;;5058614;28;20261;-75
2021/03/13 01:48:17;;;;;;;2.10;1.80;;;;;;;;;;5076433;28;20232;-75
2021/03/13 01:50:43;;;;;;;2.42;1.58;;;;;;;;;;5076601;28;20186;-75
2021/03/13 01:53:09;;;;;;;3.08;1.48;;;;;;;;;;5075870;28;20175;-74
2021/03/13 01:55:35;;;;;;;6.22;1.55;;;;;;;;;;5076068;28;20566;-74
2021/03/13 01:58:01;;;;;;;2.90;1.92;;;;;;;;;;5076708;28;20267;-75
2021/03/13 02:00:27;;;;;;;1.50;1.40;;;;;;;;;;5076132;28;20204;-74
2021/03/13 02:02:54;;;;;;;1.63;1.52;;;;;;;;;;5075989;28;20256;-75
2021/03/13 02:05:19;;;;;;;2.65;1.50;;;;;;;;;;5075732;28;20256;-74
2021/03/13 02:07:48;;;;;;;5.03;1.83;;;;;;;;;;5075975;28;20169;-74
2021/03/13 02:10:14;;;;;;;1.75;1.45;;;;;;;;;;5075806;28;20406;-74
2021/03/13 02:12:59;;;;;;;2.13;1.50;;;;;;;;;;5075838;28;20185;-74
2021/03/13 02:15:38;;;;;;;1.83;1.67;;;;;;;;;;5075697;28;20438;-74
2021/03/13 02:18:07;;;;;;;4.80;1.90;;;;;;;;;;5075846;28;20208;-75
2021/03/13 02:20:52;;;;;;;6.15;1.80;;;;;;;;;;5075705;28;20243;-74
2021/03/13 02:23:20;;;;;;;3.30;1.95;;;;;;;;;;5075315;28;20169;-75
2021/03/13 02:25:55;;;;;;;1.92;1.70;;;;;;;;;;5075515;28;20711;-74
2021/03/13 02:28:24;;;;;;;3.47;1.80;;;;;;;;;;5075519;28;20629;-74
2021/03/13 02:30:51;;;;;;;1.95;1.08;;;;;;;;;;5075682;28;20176;-74
2021/03/13 02:33:24;;;;;;;2.75;1.45;;;;;;;;;;5075250;28;20542;-74
2021/03/13 02:35:54;;;;;;;2.22;1.50;;;;;;;;;;5075441;28;20170;-75
2021/03/13 02:38:46;;;;;;;2.00;1.45;;;;;;;;;;5075184;28;20747;-74
2021/03/13 02:41:21;;;;;;;5.13;1.33;;;;;;;;;;5054234;28;20272;-74
2021/03/13 02:43:52;;;;;;;4.28;1.30;;;;;;;;;;5074986;28;20199;-75
2021/03/13 02:46:20;;;;;;;1.10;0.90;;;;;;;;;;5057374;28;20560;-75
2021/03/13 02:48:47;;;;;;;4.72;1.17;;;;;;;;;;5075449;28;20173;-74
2021/03/13 02:51:18;;;;;;;0.90;0.85;;;;;;;;;;5075620;28;20523;-74
2021/03/13 02:53:46;;;;;;;1.75;0.88;;;;;;;;;;5074895;28;20200;-74
2021/03/13 02:56:12;;;;;;;1.83;0.95;;;;;;;;;;5075092;28;20188;-75
2021/03/13 02:58:39;;;;;;;2.03;1.10;;;;;;;;;;5076756;28;20236;-75
2021/03/13 03:01:05;;;;;;;1.00;0.80;;;;;;;;;;5075749;28;20298;-74
2021/03/13 03:03:32;;;;;;;1.30;0.90;;;;;;;;;;5056563;28;20200;-74
2021/03/13 03:05:58;;;;;;;0.90;0.90;;;;;;;;;;5057061;28;20173;-74
2021/03/13 03:08:24;;;;;;;1.55;1.10;;;;;;;;;;5074988;28;20178;-75
2021/03/13 03:10:50;;;;;;;0.90;0.70;;;;;;;;;;5074945;28;20181;-75
2021/03/13 03:13:17;;;;;;;1.00;0.80;;;;;;;;;;5074341;28;20186;-75
2021/03/13 03:15:43;;;;;;;1.13;0.90;;;;;;;;;;5074689;28;20176;-75
2021/03/13 03:18:17;;;;;;;1.23;0.80;;;;;;;;;;5074666;28;20514;-75
2021/03/13 03:20:44;;;;;;;1.00;0.75;;;;;;;;;;5074685;28;20240;-74
2021/03/13 03:23:11;;;;;;;1.05;0.82;;;;;;;;;;5074224;28;20253;-74
2021/03/13 03:25:37;;;;;;;1.83;0.60;;;;;;;;;;5074527;28;20172;-75
2021/03/13 03:28:04;;;;;;;0.80;0.73;;;;;;;;;;5074522;28;20649;-75
2021/03/13 03:30:31;;;;;;;2.20;0.85;;;;;;;;;;5074294;28;20473;-75
2021/03/13 03:33:01;;;;;;;1.02;0.60;;;;;;;;;;5074370;28;20190;-76
2021/03/13 03:35:27;;;;;;;0.82;0.80;;;;;;;;;;5074585;28;20258;-75
2021/03/13 03:37:54;;;;;;;2.35;0.80;;;;;;;;;;5074502;28;20176;-75
2021/03/13 03:40:21;;;;;;;1.60;0.80;;;;;;;;;;5074083;28;20205;-75
2021/03/13 03:42:53;;;;;;;1.60;0.80;;;;;;;;;;5074316;28;20227;-74
2021/03/13 03:45:21;;;;;;;1.10;0.70;;;;;;;;;;5074043;28;20220;-76
2021/03/13 03:47:48;;;;;;;0.82;0.75;;;;;;;;;;5074068;28;20171;-75
2021/03/13 03:50:15;;;;;;;1.35;0.90;;;;;;;;;;5073744;28;20546;-75
2021/03/13 03:52:42;;;;;;;2.58;0.80;;;;;;;;;;5074007;28;20585;-75
2021/03/13 03:55:10;;;;;;;1.00;0.70;;;;;;;;;;5073662;28;20570;-75
2021/03/13 03:57:36;;;;;;;1.63;0.60;;;;;;;;;;5073920;28;20676;-75
2021/03/13 04:00:04;;;;;;;0.80;0.60;;;;;;;;;;5073800;28;20273;-75
2021/03/13 04:02:31;;;;;;;1.60;0.70;;;;;;;;;;5073853;28;20547;-76
2021/03/13 04:04:57;;;;;;;1.38;0.80;;;;;;;;;;5073342;28;20196;-75
2021/03/13 04:07:23;;;;;;;0.70;0.60;;;;;;;;;;5073837;28;20176;-75
2021/03/13 04:09:50;;;;;;;1.00;0.80;;;;;;;;;;5055839;28;20216;-74
2021/03/13 04:12:18;;;;;;;2.40;0.80;;;;;;;;;;5073529;28;20187;-75
2021/03/13 04:14:45;;;;;;;0.70;0.60;;;;;;;;;;5073011;28;20205;-75
2021/03/13 04:17:11;;;;;;;1.15;0.80;;;;;;;;;;5073541;28;20169;-74
2021/03/13 04:19:37;;;;;;;1.92;0.93;;;;;;;;;;5073352;28;20250;-75
2021/03/13 04:22:03;;;;;;;0.80;0.68;;;;;;;;;;5073473;28;20249;-75
2021/03/13 04:24:31;;;;;;;0.90;0.80;;;;;;;;;;5055058;28;20690;-75
2021/03/13 04:26:58;;;;;;;1.25;0.70;;;;;;;;;;5073254;28;20523;-74
2021/03/13 04:29:23;;;;;;;1.00;0.70;;;;;;;;;;5073428;28;20278;-74
2021/03/13 04:31:50;;;;;;;1.07;0.80;;;;;;;;;;5073309;28;20256;-74
2021/03/13 04:34:17;;;;;;;2.40;1.00;;;;;;;;;;5072845;28;20427;-75
2021/03/13 04:36:43;;;;;;;1.98;0.88;;;;;;;;;;5073241;28;20242;-74
2021/03/13 04:39:09;;;;;;;2.80;1.00;;;;;;;;;;5073204;28;20180;-74
2021/03/13 04:41:36;;;;;;;1.77;0.80;;;;;;;;;;5073211;28;20181;-75
2021/03/13 04:44:02;;;;;;;1.20;0.80;;;;;;;;;;5072867;28;20192;-74
2021/03/13 04:46:32;;;;;;;0.70;0.65;;;;;;;;;;5055200;28;20215;-74
2021/03/13 04:48:58;;;;;;;1.08;0.80;;;;;;;;;;5072955;28;20251;-74
2021/03/13 04:51:24;;;;;;;1.92;0.80;;;;;;;;;;5072955;28;20211;-75
2021/03/13 04:53:50;;;;;;;1.77;0.65;;;;;;;;;;5072843;28;20210;-74
2021/03/13 04:56:16;;;;;;;1.30;0.97;;;;;;;;;;5073092;28;20640;-74
2021/03/13 04:58:42;;;;;;;1.00;0.63;;;;;;;;;;5055137;28;20415;-74
2021/03/13 05:01:08;;;;;;;1.80;0.70;;;;;;;;;;5072682;28;20553;-74
2021/03/13 05:03:34;;;;;;;1.15;0.60;;;;;;;;;;5071981;28;20433;-74
2021/03/13 05:06:00;;;;;;;1.98;0.70;;;;;;;;;;5072690;28;20180;-74
2021/03/13 05:08:26;;;;;;;1.80;0.60;;;;;;;;;;5072784;28;20259;-74
2021/03/13 05:10:52;;;;;;;0.73;0.60;;;;;;;;;;5072563;28;20511;-75
2021/03/13 05:13:18;;;;;;;1.57;1.40;;;;;;;;;;5072390;28;20429;-74
2021/03/13 05:15:44;;;;;;;1.53;0.70;;;;;;;;;;5072888;28;20418;-74
2021/03/13 05:18:10;;;;;;;2.20;0.60;;;;;;;;;;5072784;28;21043;-74
2021/03/13 05:20:36;;;;;;;1.55;1.05;;;;;;;;;;5072650;28;20286;-75
2021/03/13 05:23:02;;;;;;;0.60;0.50;;;;;;;;;;5072099;28;20176;-75
2021/03/13 05:25:28;;;;;;;1.05;0.60;;;;;;;;;;5072485;28;20203;-74
2021/03/13 05:27:54;;;;;;;1.55;0.50;;;;;;;;;;5072608;28;20176;-75
2021/03/13 05:30:20;;;;;;;1.17;0.70;;;;;;;;;;5072568;28;20228;-75
2021/03/13 05:32:46;;;;;;;0.90;0.77;;;;;;;;;;5072571;28;20902;-74
2021/03/13 05:35:13;;;;;;;1.10;0.60;;;;;;;;;;5072108;28;20207;-74
2021/03/13 05:37:40;;;;;;;1.00;0.60;;;;;;;;;;5072559;28;20184;-74
2021/03/13 05:40:10;;;;;;;2.17;0.82;;;;;;;;;;5054558;28;20228;-74
2021/03/13 05:42:36;;;;;;;2.58;0.70;;;;;;;;;;5072538;28;20169;-75
2021/03/13 05:45:03;;;;;;;2.20;0.70;;;;;;;;;;5054546;28;20273;-74
2021/03/13 05:47:30;;;;;;;3.72;0.98;;;;;;;;;;5072460;28;20176;-74
2021/03/13 05:50:17;;;;;;;2.40;1.00;;;;;;;;;;5072350;28;20180;-74
2021/03/13 05:52:44;;;;;;;2.13;0.80;;;;;;;;;;5072567;28;20187;-74
2021/03/13 05:55:10;;;;;;;5.45;1.00;;;;;;;;;;5071953;28;20197;-73
2021/03/13 05:57:36;;;;;;;1.27;0.82;;;;;;;;;;5072321;28;20184;-74
2021/03/13 06:00:04;;;;;;;1.55;1.45;;;;;;;;;;5054400;28;20204;-74
2021/03/13 06:02:30;;;;;;;1.20;0.70;;;;;;;;;;5072238;28;20181;-74
2021/03/13 06:04:56;;;;;;;1.92;0.98;;;;;;;;;;5037658;28;20204;-74
2021/03/13 06:07:25;;;;;;;2.63;0.83;;;;;;;;;;5054053;28;20180;-74
2021/03/13 06:09:55;;;;;;;1.10;0.88;;;;;;;;;;5072250;28;20403;-74
2021/03/13 06:12:22;;;;;;;1.88;0.77;;;;;;;;;;5072052;28;20588;-74
2021/03/13 06:14:51;;;;;;;2.95;0.90;;;;;;;;;;5074970;28;20209;-74
2021/03/13 06:17:18;;;;;;;0.90;0.70;;;;;;;;;;5075715;28;20184;-74
2021/03/13 06:20:02;;;;;;;1.10;0.60;;;;;;;;;;5075682;28;20598;-75
2021/03/13 06:22:41;;;;;;;1.65;0.68;;;;;;;;;;5057831;28;20190;-74
2021/03/13 06:25:19;;;;;;;4.75;0.70;;;;;;;;;;5075382;28;20184;-74
2021/03/13 06:27:46;;;;;;;2.20;1.00;;;;;;;;;;5075424;28;20602;-74
2021/03/13 06:30:13;;;;;;;1.88;0.70;;;;;;;;;;5075827;28;20195;-74
2021/03/13 06:32:40;;;;;;;0.93;0.60;;;;;;;;;;5075708;28;20580;-74
2021/03/13 06:35:19;;;;;;;2.60;0.70;;;;;;;;;;5075428;28;20200;-73
2021/03/13 06:37:45;;;;;;;1.23;0.70;;;;;;;;;;5075522;28;20238;-74
2021/03/13 06:40:25;;;;;;;2.08;0.70;;;;;;;;;;5075273;28;20287;-75
2021/03/13 06:42:51;;;;;;;0.70;0.50;;;;;;;;;;5057655;28;20719;-73
2021/03/13 06:45:19;;;;;;;1.05;0.60;;;;;;;;;;5075055;28;20739;-74
2021/03/13 06:47:45;;;;;;;0.90;0.70;;;;;;;;;;5074846;28;20566;-74
2021/03/13 06:50:12;;;;;;;0.70;0.60;;;;;;;;;;5075297;28;20181;-74
2021/03/13 06:52:39;;;;;;;1.50;0.80;;;;;;;;;;5056895;28;20176;-74
2021/03/13 06:55:05;;;;;;;0.90;0.60;;;;;;;;;;5074903;28;20195;-73
2021/03/13 06:57:31;;;;;;;0.70;0.50;;;;;;;;;;5075310;28;20539;-74
2021/03/13 07:00:01;;;;;;;1.37;0.60;;;;;;;;;;5075165;28;20212;-74
2021/03/13 07:02:27;;;;;;;0.60;0.50;;;;;;;;;;5074987;28;20415;-74
2021/03/13 07:05:05;;;;;;;5.97;0.88;;;;;;;;;;5074719;28;20690;-74
2021/03/13 07:07:32;;;;;;;0.80;0.60;;;;;;;;;;5075164;28;20176;-75
2021/03/13 07:09:59;;;;;;;1.17;0.70;;;;;;;;;;5074867;28;20256;-74
2021/03/13 07:12:34;;;;;;;0.75;0.70;;;;;;;;;;5074841;28;20318;-74
2021/03/13 07:15:16;;;;;;;1.45;0.50;;;;;;;;;;5074769;28;20647;-75
2021/03/13 07:17:52;;;;;;;1.73;0.50;;;;;;;;;;5075318;28;20184;-75
2021/03/13 07:20:23;;;;;;;0.90;0.60;;;;;;;;;;5074913;28;20240;-74
2021/03/13 07:22:50;;;;;;;0.60;0.50;;;;;;;;;;5074831;28;20303;-74
2021/03/13 07:25:18;;;;;;;0.90;0.60;;;;;;;;;;5073755;28;20231;-74
2021/03/13 07:27:45;;;;;;;1.83;0.70;;;;;;;;;;5056652;28;20628;-74
2021/03/13 07:30:12;;;;;;;0.70;0.60;;;;;;;;;;5074468;28;20188;-74
2021/03/13 07:32:41;;;;;;;1.77;0.75;;;;;;;;;;5056717;28;20672;-74
2021/03/13 07:35:09;;;;;;;0.85;0.60;;;;;;;;;;5056238;28;20573;-75
2021/03/13 07:37:38;;;;;;;1.77;0.70;;;;;;;;;;5074407;28;20545;-74
2021/03/13 07:40:04;;;;;;;1.05;0.73;;;;;;;;;;5074103;28;20529;-74
2021/03/13 07:42:30;;;;;;;2.35;1.00;;;;;;;;;;5074503;28;20532;-77
2021/03/13 07:44:56;;;;;;;4.40;0.90;;;;;;;;;;5055971;28;20197;-77
2021/03/13 07:47:23;;;;;;;9.48;1.30;;;;;;;;;;5074289;28;20205;-77
2021/03/13 07:49:49;;;;;;;1.98;0.85;;;;;;;;;;5074187;28;20655;-77
2021/03/13 07:52:17;;;;;;;2.80;0.75;;;;;;;;;;5074015;28;20259;-76
2021/03/13 07:54:48;;;;;;;2.78;0.95;;;;;;;;;;5073675;28;20197;-76
2021/03/13 07:57:14;;;;;;;2.25;0.63;;;;;;;;;;5074026;28;20706;-76
2021/03/13 07:59:48;;;;;;;2.83;0.70;;;;;;;;;;5056074;28;20208;-76
2021/03/13 08:02:29;;;;;;;2.67;0.80;;;;;;;;;;5073768;28;20619;-76
2021/03/13 08:04:56;;;;;;;2.35;0.70;;;;;;;;;;5073622;28;20262;-76
2021/03/13 08:07:22;;;;;;;1.10;0.60;;;;;;;;;;5074039;28;20179;-74
2021/03/13 08:09:48;;;;;;;1.65;0.75;;;;;;;;;;5073659;28;20586;-75
2021/03/13 08:12:34;;;;;;;2.35;0.63;;;;;;;;;;5073571;28;20540;-76
2021/03/13 08:15:00;;;;;;;1.83;0.90;;;;;;;;;;5055321;28;20196;-76
2021/03/13 08:17:39;;;;;;;2.63;0.80;;;;;;;;;;5073592;28;20636;-74
2021/03/13 08:20:05;;;;;;;3.03;0.80;;;;;;;;;;5073345;28;20275;-76
2021/03/13 08:22:31;;;;;;;2.47;0.70;;;;;;;;;;5055640;28;20181;-75
2021/03/13 08:24:57;;;;;;;2.40;0.70;;;;;;;;;;5073016;28;20214;-75
2021/03/13 08:27:38;;;;;;;2.03;0.80;;;;;;;;;;5073254;28;20446;-76
2021/03/13 08:30:25;;;;;;;0.77;0.70;;;;;;;;;;5073273;28;20411;-74
2021/03/13 08:32:57;;;;;;;4.05;0.90;;;;;;;;;;5062820;28;20567;-76
2021/03/13 08:35:32;;;;;;;2.33;0.70;;;;;;;;;;5073029;28;20608;-74
2021/03/13 08:37:58;;;;;;;3.78;0.73;;;;;;;;;;5054507;28;20664;-75
2021/03/13 08:40:25;;;;;;;1.88;0.75;;;;;;;;;;5055091;28;20207;-76
2021/03/13 08:42:51;;;;;;;1.75;0.70;;;;;;;;;;5072998;28;20218;-75
2021/03/13 08:45:18;;;;;;;1.20;0.80;;;;;;;;;;5072984;28;20275;-76
2021/03/13 08:47:48;;;;;;;1.70;1.00;;;;;;;;;;5073000;28;20251;-75
2021/03/13 08:50:34;;;;;;;2.80;1.23;;;;;;;;;;5073056;28;20283;-74
2021/03/13 08:53:20;;;;;;;1.40;0.90;;;;;;;;;;5072441;28;20195;-75
2021/03/13 08:55:45;;;;;;;1.00;0.68;;;;;;;;;;5073023;28;20172;-76
2021/03/13 08:58:31;;;;;;;2.13;1.00;;;;;;;;;;5072986;28;20194;-75
2021/03/13 09:01:13;;;;;;;2.97;1.10;;;;;;;;;;5072588;28;20981;-75
2021/03/13 09:03:44;;;;;;;3.40;0.70;;;;;;;;;;5072447;28;20212;-74
2021/03/13 09:06:10;;;;;;;5.07;1.95;;;;;;;;;;5054896;28;20173;-75
2021/03/13 09:08:36;;;;;;;4.22;1.33;;;;;;;;;;5072868;28;20764;-74
2021/03/13 09:11:02;;;;;;;2.90;1.10;;;;;;;;;;5072561;28;20196;-76
2021/03/13 09:13:28;;;;;;;1.60;0.93;;;;;;;;;;5054490;28;20895;-75
2021/03/13 09:15:54;;;;;;;3.40;1.30;;;;;;;;;;5072640;28;20429;-75
2021/03/13 09:18:20;;;;;;;1.87;1.07;;;;;;;;;;5072609;28;20472;-75
2021/03/13 09:20:46;;;;;;;2.90;0.93;;;;;;;;;;5072507;28;20458;-74
2021/03/13 09:23:12;;;;;;;4.80;1.10;;;;;;;;;;5054237;28;20834;-75
2021/03/13 09:25:38;;;;;;;4.80;1.58;;;;;;;;;;5072666;28;20442;-75
2021/03/13 09:28:05;;;;;;;3.50;1.27;;;;;;;;;;5072410;28;20664;-73
2021/03/13 09:30:34;;;;;;;2.10;1.20;;;;;;;;;;5072616;28;20407;-74
2021/03/13 09:33:00;;;;;;;1.70;1.00;;;;;;;;;;5072390;28;20204;-75
2021/03/13 09:35:27;;;;;;;3.88;1.20;;;;;;;;;;5072537;28;20319;-73
2021/03/13 09:37:53;;;;;;;7.13;1.10;;;;;;;;;;5072544;28;20211;-75
2021/03/13 09:40:24;;;;;;;2.40;1.60;;;;;;;;;;5072397;28;20204;-75
2021/03/13 09:42:51;;;;;;;7.45;1.30;;;;;;;;;;5072302;28;20176;-75
2021/03/13 09:45:17;;;;;;;5.93;1.55;;;;;;;;;;5054081;28;20226;-75
2021/03/13 09:47:43;;;;;;;9.15;1.70;;;;;;;;;;5072496;28;20523;-77
2021/03/13 09:50:10;;;;;;;4.33;1.30;;;;;;;;;;5076420;28;20177;-75
2021/03/13 09:52:38;;;;;;;1.67;0.90;;;;;;;;;;5076474;28;20411;-77
2021/03/13 09:55:06;;;;;;;4.63;1.52;;;;;;;;;;5075961;28;20198;-76
2021/03/13 09:57:32;;;;;;;5.97;1.80;;;;;;;;;;5076392;28;20248;-76
2021/03/13 09:59:58;;;;;;;4.10;1.00;;;;;;;;;;5058331;28;20208;-77
2021/03/13 10:02:24;;;;;;;5.35;1.33;;;;;;;;;;5076223;28;20204;-75
2021/03/13 10:04:51;;;;;;;4.85;1.48;;;;;;;;;;5075600;28;20201;-76
2021/03/13 10:07:17;;;;;;;3.55;2.05;;;;;;;;;;5058421;28;20173;-75
2021/03/13 10:09:54;;;;;;;5.35;1.30;;;;;;;;;;5076083;28;20183;-76
2021/03/13 10:12:27;;;;;;;4.65;1.17;;;;;;;;;;5057886;28;20192;-77
2021/03/13 10:14:53;;;;;;;6.90;1.65;;;;;;;;;;5075366;28;20224;-76
2021/03/13 10:17:19;;;;;;;3.30;1.63;;;;;;;;;;5075690;28;20179;-76
2021/03/13 10:19:45;;;;;;;7.07;1.80;;;;;;;;;;5075874;28;20675;-76
2021/03/13 10:22:11;;;;;;;2.10;1.40;;;;;;;;;;5075892;28;20176;-74
2021/03/13 10:24:54;;;;;;;7.22;1.30;;;;;;;;;;5057492;28;20200;-75
2021/03/13 10:27:24;;;;;;;4.15;1.25;;;;;;;;;;5075545;28;20199;-75
2021/03/13 10:29:53;;;;;;;4.40;1.73;;;;;;;;;;5075785;28;20173;-75
2021/03/13 10:32:27;;;;;;;5.97;1.83;;;;;;;;;;5075680;28;20180;-74
2021/03/13 10:35:06;;;;;;;3.67;1.25;;;;;;;;;;5057215;28;20204;-74
2021/03/13 10:37:40;;;;;;;4.75;1.30;;;;;;;;;;5075408;28;20181;-77
2021/03/13 10:40:07;;;;;;;3.78;1.27;;;;;;;;;;5075511;28;20192;-75
2021/03/13 10:42:35;;;;;;;6.15;1.48;;;;;;;;;;5074953;28;20191;-73
2021/03/13 10:45:17;;;;;;;1.65;1.02;;;;;;;;;;5074537;28;20296;-75
2021/03/13 10:47:44;;;;;;;6.47;1.55;;;;;;;;;;5055370;28;20665;-75
2021/03/13 10:50:10;;;;;;;8.55;1.98;;;;;;;;;;5055154;28;20584;-76
2021/03/13 10:52:38;;;;;;;7.65;1.65;;;;;;;;;;5055166;28;20582;-75
2021/03/13 10:55:04;;;;;;;13.88;1.77;;;;;;;;;;5054641;28;20669;-76
2021/03/13 10:57:30;;;;;;;5.75;1.60;;;;;;;;;;5037190;28;20188;-77
2021/03/13 10:59:56;;;;;;;7.20;1.70;;;;;;;;;;5054095;28;20681;-76
2021/03/13 11:02:22;;;;;;;2.50;1.23;;;;;;;;;;5055349;28;20412;-77
2021/03/13 11:04:48;;;;;;;6.10;1.60;;;;;;;;;;5036866;28;20436;-76
2021/03/13 11:07:15;;;;;;;3.75;1.50;;;;;;;;;;5055063;28;20808;-77
2021/03/13 11:09:47;;;;;;;5.15;3.15;;;;;;;;;;5054845;28;20174;-76
2021/03/13 11:12:14;;;;;;;5.97;1.50;;;;;;;;;;5055102;28;20276;-76
2021/03/13 11:14:40;;;;;;;5.43;1.90;;;;;;;;;;5074458;28;20672;-75
2021/03/13 11:17:08;;;;;;;6.30;1.77;;;;;;;;;;5075407;28;20545;-77
2021/03/13 11:19:34;;;;;;;5.15;1.90;;;;;;;;;;5074848;28;20481;-75
2021/03/13 11:22:00;;;;;;;4.47;1.27;;;;;;;;;;5074782;28;20637;-77
2021/03/13 11:24:26;;;;;;;6.77;1.80;;;;;;;;;;5074112;28;20434;-76
2021/03/13 11:26:52;;;;;;;7.22;1.60;;;;;;;;;;5074653;28;20438;-75
2021/03/13 11:29:24;;;;;;;6.90;1.73;;;;;;;;;;5074547;28;20222;-76
2021/03/13 11:31:56;;;;;;;7.95;1.80;;;;;;;;;;5074393;28;20574;-75
2021/03/13 11:34:22;;;;;;;10.40;2.13;;;;;;;;;;5074221;28;20222;-77
2021/03/13 11:36:49;;;;;;;3.75;1.55;;;;;;;;;;5074485;28;20547;-77
2021/03/13 11:39:15;;;;;;;9.45;2.42;;;;;;;;;;5074236;28;20169;-77
2021/03/13 11:41:42;;;;;;;5.13;1.70;;;;;;;;;;5074102;28;20506;-77
2021/03/13 11:44:09;;;;;;;5.65;2.00;;;;;;;;;;5073635;28;20510;-76
2021/03/13 11:46:35;;;;;;;9.25;2.20;;;;;;;;;;5073969;28;20569;-77
2021/03/13 11:49:01;;;;;;;7.37;2.30;;;;;;;;;;5074115;28;20179;-77
2021/03/13 11:51:27;;;;;;;9.03;1.97;;;;;;;;;;5074065;28;20407;-76
2021/03/13 11:53:53;;;;;;;7.30;2.40;;;;;;;;;;5073540;28;20461;-76
2021/03/13 11:56:18;;;;;;;7.67;2.40;;;;;;;;;;5074009;28;20414;-76
2021/03/13 11:58:44;;;;;;;13.33;3.53;;;;;;;;;;5074024;28;20902;-75
2021/03/13 12:01:10;;;;;;;8.85;2.30;;;;;;;;;;5073678;28;20549;-78
2021/03/13 12:03:36;;;;;;;14.25;3.05;;;;;;;;;;5073338;28;20720;-77
2021/03/13 12:06:02;;;;;;;8.07;1.50;;;;;;;;;;5073421;28;20183;-78
2021/03/13 12:08:28;;;;;;;9.80;2.70;;;;;;;;;;5073547;28;20169;-77
2021/03/13 12:10:54;;;;;;;15.43;2.83;;;;;;;;;;5073371;28;20839;-76
2021/03/13 12:13:20;;;;;;;7.30;2.20;;;;;;;;;;5073204;28;20411;-77
2021/03/13 12:15:46;;;;;;;16.67;2.63;;;;;;;;;;5073436;28;20407;-76
2021/03/13 12:18:12;;;;;;;9.70;2.60;;;;;;;;;;5054895;28;20660;-77
2021/03/13 12:20:38;;;;;;;8.05;2.63;;;;;;;;;;5073438;28;20250;-76
2021/03/13 12:23:05;;;;;;;8.25;2.50;;;;;;;;;;5055134;28;20173;-77
2021/03/13 12:25:32;;;;;;;8.80;2.17;;;;;;;;;;5073126;28;20299;-76
2021/03/13 12:27:58;;;;;;;13.18;2.30;;;;;;;;;;5073186;28;20196;-77
2021/03/13 12:30:24;;;;;;;11.43;2.97;;;;;;;;;;5073093;28;20191;-77
2021/03/13 12:32:50;;;;;;;9.65;2.17;;;;;;;;;;5073202;28;20977;-77
2021/03/13 12:35:16;;;;;;;8.10;2.20;;;;;;;;;;5072607;28;20203;-75
2021/03/13 12:37:42;;;;;;;5.78;1.75;;;;;;;;;;5073038;28;20772;-77
2021/03/13 12:40:08;;;;;;;12.55;2.15;;;;;;;;;;5072866;28;20205;-78
2021/03/13 12:42:35;;;;;;;11.07;2.83;;;;;;;;;;5072945;28;20173;-77
2021/03/13 12:45:01;;;;;;;7.18;1.98;;;;;;;;;;5072559;28;20281;-77
2021/03/13 12:47:27;;;;;;;7.05;1.95;;;;;;;;;;5072867;28;20177;-77
2021/03/13 12:49:54;;;;;;;3.13;2.10;;;;;;;;;;5072778;28;20563;-77
2021/03/13 12:52:20;;;;;;;11.63;2.67;;;6.20;99.90;;;;;;5072598;28;20200;-78
2021/03/13 12:54:47;;;;;;;6.60;2.13;;;;;;;;;;5054691;28;20235;-77
2021/03/13 12:57:13;;;;;;;3.67;1.40;;;;;;;;;;5073025;28;20183;-77
2021/03/13 12:59:39;;;;;;;11.77;2.30;;;;;;;;;;5054973;28;20200;-77
2021/03/13 13:02:05;;;;;;;7.65;2.25;;;;;;;;;;5054925;28;20540;-78
2021/03/13 13:04:31;;;;;;;5.15;1.63;;;;;;;;;;5054519;28;20539;-76
2021/03/13 13:06:58;;;;;;;8.82;2.30;;;;;;;;;;5072847;28;20578;-76
2021/03/13 13:09:24;;;;;;;5.38;2.33;;;;;;;;;;5072611;28;20539;-77
2021/03/13 13:11:50;;;;;;;5.47;1.65;;;;;;;;;;5054732;28;20196;-77
2021/03/13 13:14:16;;;;;;;4.40;1.30;;;;;;;;;;5054180;28;20673;-76
2021/03/13 13:16:42;;;;;;;3.30;1.35;;;;;;;;;;5072284;28;20310;-77
2021/03/13 13:19:08;;;;;;;7.00;2.30;;;;;;;;;;5054670;28;20263;-78
2021/03/13 13:21:34;;;;;;;4.95;1.40;;;;;;;;;;5072480;28;20206;-77
2021/03/13 13:24:00;;;;;;;4.75;1.85;;;;;;;;;;5071710;28;20201;-77
2021/03/13 13:26:26;;;;;;;6.57;2.60;;;;;;;;;;5072601;28;20621;-76
2021/03/13 13:28:52;;;;;;;5.90;1.50;;;;;;;;;;5072605;28;20468;-77
2021/03/13 13:31:18;;;;;;;6.10;1.63;;;;;;;;;;5072377;28;20181;-78
2021/03/13 13:33:44;;;;;;;6.23;2.00;;;;;;;;;;5072170;28;20695;-76
2021/03/13 13:36:10;;;;;;;5.25;1.70;;;;;;;;;;5054645;28;20935;-77
2021/03/13 13:38:36;;;;;;;5.95;2.50;;;;;;;;;;5072277;28;20251;-76
2021/03/13 13:41:03;;;;;;;12.63;1.77;;;;;;;;;;5072210;28;20280;-77
2021/03/13 13:43:30;;;;;;;6.63;1.83;;;;;;;;;;5072088;28;20817;-77
2021/03/13 13:45:56;;;;;;;9.60;2.05;;;;;;;;;;5054578;28;20685;-77
2021/03/13 13:48:22;;;;;;;3.58;1.88;;;;;;;;;;5072395;28;20585;-77
2021/03/13 13:50:48;;;;;;;7.17;1.40;;;;;;;;;;5072157;28;20184;-76
2021/03/13 13:53:14;;;;;;;5.10;1.27;;;;;;;;;;5071972;28;20415;-77
2021/03/13 13:55:42;;;;;;;7.50;1.60;;;;;;;;;;5054309;28;20430;-77
2021/03/13 13:58:08;;;;;;;2.50;1.30;;;;;;;;;;5072235;28;20449;-76
2021/03/13 14:00:34;;;;;;;4.77;1.67;;;;;;;;;;5072484;28;20239;-76
2021/03/13 14:03:00;;;;;;;6.18;1.40;;;;;;;;;;5072136;28;20464;-76
2021/03/13 14:05:26;;;;;;;4.82;1.13;;;;;;;;;;5072173;28;20193;-77
2021/03/13 14:07:53;;;;;;;8.93;2.25;;;;;;;;;;5072319;28;20260;-75
2021/03/13 14:10:19;;;;;;;8.75;1.60;;;;;;;;;;5072375;28;20177;-77
2021/03/13 14:12:45;;;;;;;5.30;2.17;;;;;;;;;;5072053;28;20192;-76
2021/03/13 14:15:11;;;;;;;6.45;1.70;;;;;;;;;;5071516;28;20200;-78
2021/03/13 14:17:37;;;;;;;10.20;1.70;;;;;;;;;;5072184;28;20181;-77
2021/03/13 14:20:05;;;;;;;7.28;1.55;;;;;;;;;;5072264;28;20204;-76
2021/03/13 14:22:31;;;;;;;4.65;1.33;;;;;;;;;;5072111;28;20258;-76
2021/03/13 14:24:57;;;;;;;5.47;1.88;;;;;;;;;;5071708;28;20196;-75
2021/03/13 14:27:23;;;;;;;5.22;1.45;;;;;;;;;;5072133;28;20180;-77
2021/03/13 14:29:49;;;;;;;8.82;2.35;;;;;;;;;;5071934;28;20542;-77
2021/03/13 14:32:15;;;;;;;9.00;2.95;;;;;;;;;;5072036;28;20183;-76
2021/03/13 14:34:42;;;;;;;6.85;1.85;;;;;;;;;;5053700;28;20209;-76
2021/03/13 14:37:08;;;;;;;11.38;1.77;;;;;;;;;;5075457;28;20184;-75
2021/03/13 14:39:34;;;;;;;6.00;1.53;;;;;;;;;;5075448;28;20181;-77
2021/03/13 14:42:01;;;;;;;16.88;2.65;;;;;;;;;;5075516;28;20406;-76
2021/03/13 14:44:27;;;;;;;3.30;1.30;;;;;;;;;;5074940;28;20188;-76
2021/03/13 14:46:54;;;;;;;5.30;2.17;;;;;;;;;;5057089;28;20191;-74